createdAt,value
2022-10-24T00:00:01.034Z,1011.62
2022-10-24T00:01:01.137Z,1011.62
2022-10-24T00:02:01.194Z,1011.63
2022-10-24T00:03:01.077Z,1011.62
2022-10-24T00:04:01.890Z,1011.64
2022-10-24T00:05:01.787Z,1011.77
2022-10-24T00:06:00.625Z,1011.77
2022-10-24T00:07:00.603Z,1011.78
2022-10-24T00:08:00.245Z,1011.83
2022-10-24T00:08:59.835Z,1011.82
2022-10-24T00:10:02.066Z,1011.79
2022-10-24T00:11:01.448Z,1011.83
2022-10-24T00:12:01.803Z,1011.78
2022-10-24T00:13:01.284Z,1011.75
2022-10-24T00:14:01.887Z,1011.76
2022-10-24T00:15:01.292Z,1011.77
2022-10-24T00:16:01.556Z,1011.78
2022-10-24T00:17:01.056Z,1011.74
2022-10-24T00:18:01.056Z,1011.66
2022-10-24T00:19:01.062Z,1011.59
2022-10-24T00:20:01.056Z,1011.56
2022-10-24T00:21:01.042Z,1011.52
2022-10-24T00:22:00.654Z,1011.45
2022-10-24T00:23:00.366Z,1011.3
2022-10-24T00:23:59.992Z,1011.24
2022-10-24T00:24:59.639Z,1011.26
2022-10-24T00:26:02.253Z,1011.3
2022-10-24T00:27:01.500Z,1011.38
2022-10-24T00:28:01.955Z,1011.5
2022-10-24T00:30:02.499Z,1011.45
2022-10-24T00:31:01.266Z,1011.42
2022-10-24T00:32:01.057Z,1011.46
2022-10-24T00:33:01.059Z,1011.49
2022-10-24T00:34:01.050Z,1011.54
2022-10-24T00:35:01.438Z,1011.52
2022-10-24T00:36:01.059Z,1011.49
2022-10-24T00:37:01.051Z,1011.48
2022-10-24T00:38:01.050Z,1011.43
2022-10-24T00:39:01.311Z,1011.43
2022-10-24T00:40:01.430Z,1011.44
2022-10-24T00:41:02.076Z,1011.44
2022-10-24T00:42:01.065Z,1011.41
2022-10-24T00:43:01.050Z,1011.52
2022-10-24T00:44:03.727Z,1011.51
2022-10-24T00:45:01.042Z,1011.49
2022-10-24T00:46:01.044Z,1011.48
2022-10-24T00:47:01.519Z,1011.46
2022-10-24T00:48:01.874Z,1011.47
2022-10-24T00:49:01.151Z,1011.49
2022-10-24T00:50:01.450Z,1011.49
2022-10-24T00:51:01.779Z,1011.38
2022-10-24T00:52:04.054Z,1011.53
2022-10-24T00:53:09.313Z,1011.58
2022-10-24T00:54:01.962Z,1011.56
2022-10-24T00:55:02.495Z,1011.61
2022-10-24T00:56:01.078Z,1011.57
2022-10-24T00:57:06.506Z,1011.63
2022-10-24T00:58:01.066Z,1011.62
2022-10-24T00:59:01.051Z,1011.61
2022-10-24T01:00:01.072Z,1011.57
2022-10-24T01:01:01.189Z,1011.6
2022-10-24T01:02:08.902Z,1011.55
2022-10-24T01:03:01.706Z,1011.54
2022-10-24T01:04:01.051Z,1011.53
2022-10-24T01:05:01.430Z,1011.43
2022-10-24T01:06:01.174Z,1011.4
2022-10-24T01:07:13.150Z,1011.39
2022-10-24T01:08:01.870Z,1011.43
2022-10-24T01:09:01.784Z,1011.38
2022-10-24T01:10:01.705Z,1011.34
2022-10-24T01:11:01.293Z,1011.31
2022-10-24T01:12:16.611Z,1011.25
2022-10-24T01:13:04.110Z,1011.21
2022-10-24T01:14:01.056Z,1011.16
2022-10-24T01:15:01.831Z,1011.13
2022-10-24T01:16:01.374Z,1011.09
2022-10-24T01:17:01.082Z,1011.06
2022-10-24T01:18:02.466Z,1011.09
2022-10-24T01:19:02.080Z,1011.11
2022-10-24T01:20:02.084Z,1011.16
2022-10-24T01:21:01.708Z,1011.2
2022-10-24T01:22:02.043Z,1011.15
2022-10-24T01:23:01.732Z,1011.1
2022-10-24T01:24:01.437Z,1011.15
2022-10-24T01:25:01.041Z,1011.1
2022-10-24T01:26:01.051Z,1011.16
2022-10-24T01:27:01.109Z,1011.09
2022-10-24T01:28:01.054Z,1011.11
2022-10-24T01:29:01.494Z,1011.11
2022-10-24T01:30:02.104Z,1011.03
2022-10-24T01:31:01.045Z,1010.96
2022-10-24T01:32:01.080Z,1010.94
2022-10-24T01:33:01.711Z,1010.99
2022-10-24T01:34:02.065Z,1011.03
2022-10-24T01:35:01.281Z,1011.02
2022-10-24T01:36:01.164Z,1010.97
2022-10-24T01:37:01.181Z,1010.92
2022-10-24T01:38:01.786Z,1010.96
2022-10-24T01:39:01.061Z,1010.9
2022-10-24T01:40:01.044Z,1010.86
2022-10-24T01:41:01.045Z,1010.85
2022-10-24T01:42:01.053Z,1010.75
2022-10-24T01:43:01.063Z,1010.73
2022-10-24T01:44:01.045Z,1010.75
2022-10-24T01:45:03.808Z,1010.71
2022-10-24T01:46:01.855Z,1010.7
2022-10-24T01:47:01.050Z,1010.69
2022-10-24T01:48:01.206Z,1010.62
2022-10-24T01:49:01.036Z,1010.68
2022-10-24T01:50:01.037Z,1010.62
2022-10-24T01:51:01.050Z,1010.62
2022-10-24T01:52:03.789Z,1010.63
2022-10-24T01:53:01.062Z,1010.66
2022-10-24T01:54:01.135Z,1010.6
2022-10-24T01:55:01.221Z,1010.62
2022-10-24T01:56:02.153Z,1010.61
2022-10-24T01:57:02.096Z,1010.58
2022-10-24T01:58:01.127Z,1010.56
2022-10-24T01:59:01.709Z,1010.58
2022-10-24T02:00:01.062Z,1010.56
2022-10-24T02:01:01.226Z,1010.52
2022-10-24T02:02:01.075Z,1010.5
2022-10-24T02:03:01.451Z,1010.46
2022-10-24T02:04:03.785Z,1010.42
2022-10-24T02:05:02.134Z,1010.41
2022-10-24T02:06:01.045Z,1010.42
2022-10-24T02:07:01.051Z,1010.4
2022-10-24T02:08:01.064Z,1010.46
2022-10-24T02:09:01.092Z,1010.42
2022-10-24T02:10:01.163Z,1010.37
2022-10-24T02:11:01.050Z,1010.33
2022-10-24T02:12:01.060Z,1010.36
2022-10-24T02:13:01.096Z,1010.33
2022-10-24T02:14:01.801Z,1010.36
2022-10-24T02:15:01.442Z,1010.32
2022-10-24T02:16:04.122Z,1010.34
2022-10-24T02:17:03.946Z,1010.32
2022-10-24T02:18:04.582Z,1010.29
2022-10-24T02:19:00.599Z,1010.26
2022-10-24T02:20:00.200Z,1010.26
2022-10-24T02:20:59.776Z,1010.33
2022-10-24T02:22:04.761Z,1010.39
2022-10-24T02:23:01.750Z,1010.47
2022-10-24T02:24:01.426Z,1010.53
2022-10-24T02:25:01.423Z,1010.51
2022-10-24T02:26:02.073Z,1010.51
2022-10-24T02:27:02.076Z,1010.54
2022-10-24T02:28:03.224Z,1010.55
2022-10-24T02:29:02.315Z,1010.56
2022-10-24T02:30:01.054Z,1010.68
2022-10-24T02:31:01.065Z,1010.68
2022-10-24T02:32:01.721Z,1010.65
2022-10-24T02:33:05.681Z,1010.61
2022-10-24T02:34:04.577Z,1010.56
2022-10-24T02:35:01.259Z,1010.55
2022-10-24T02:36:01.152Z,1010.53
2022-10-24T02:37:01.133Z,1010.55
2022-10-24T02:38:08.568Z,1010.49
2022-10-24T02:39:01.782Z,1010.49
2022-10-24T02:40:01.704Z,1010.49
2022-10-24T02:41:01.421Z,1010.54
2022-10-24T02:42:02.085Z,1010.5
2022-10-24T02:43:13.242Z,1010.52
2022-10-24T02:44:00.664Z,1010.49
2022-10-24T02:45:00.284Z,1010.53
2022-10-24T02:45:59.914Z,1010.5
2022-10-24T02:46:59.718Z,1010.51
2022-10-24T02:48:15.898Z,1010.54
2022-10-24T02:49:02.422Z,1010.53
2022-10-24T02:50:01.361Z,1010.5
2022-10-24T02:51:02.027Z,1010.52
2022-10-24T02:52:01.095Z,1010.49
2022-10-24T02:53:01.049Z,1010.5
2022-10-24T02:54:01.440Z,1010.5
2022-10-24T02:55:01.518Z,1010.52
2022-10-24T02:56:01.183Z,1010.5
2022-10-24T02:57:03.864Z,1010.5
2022-10-24T02:58:02.128Z,1010.44
2022-10-24T02:59:02.563Z,1010.41
2022-10-24T03:00:01.707Z,1010.39
2022-10-24T03:01:02.192Z,1010.3
2022-10-24T03:02:01.724Z,1010.35
2022-10-24T03:03:01.065Z,1010.3
2022-10-24T03:04:04.117Z,1010.32
2022-10-24T03:05:01.048Z,1010.3
2022-10-24T03:06:01.058Z,1010.28
2022-10-24T03:07:01.073Z,1010.22
2022-10-24T03:08:01.045Z,1010.17
2022-10-24T03:09:01.421Z,1010.19
2022-10-24T03:10:01.054Z,1010.25
2022-10-24T03:11:01.053Z,1010.27
2022-10-24T03:12:01.064Z,1010.28
2022-10-24T03:13:01.068Z,1010.28
2022-10-24T03:14:01.221Z,1010.28
2022-10-24T03:15:01.427Z,1010.34
2022-10-24T03:16:01.051Z,1010.32
2022-10-24T03:17:01.041Z,1010.37
2022-10-24T03:18:01.075Z,1010.37
2022-10-24T03:19:01.053Z,1010.4
2022-10-24T03:20:01.060Z,1010.38
2022-10-24T03:21:01.109Z,1010.39
2022-10-24T03:22:01.052Z,1010.37
2022-10-24T03:23:01.049Z,1010.36
2022-10-24T03:24:01.135Z,1010.37
2022-10-24T03:25:01.050Z,1010.35
2022-10-24T03:26:01.058Z,1010.38
2022-10-24T03:27:01.041Z,1010.35
2022-10-24T03:28:01.050Z,1010.29
2022-10-24T03:29:01.420Z,1010.28
2022-10-24T03:30:01.038Z,1010.32
2022-10-24T03:31:03.569Z,1010.28
2022-10-24T03:32:02.490Z,1010.25
2022-10-24T03:33:01.683Z,1010.26
2022-10-24T03:34:01.938Z,1010.25
2022-10-24T03:35:01.441Z,1010.26
2022-10-24T03:36:01.158Z,1010.28
2022-10-24T03:37:01.051Z,1010.26
2022-10-24T03:38:01.226Z,1010.31
2022-10-24T03:39:01.609Z,1010.34
2022-10-24T03:40:02.497Z,1010.34
2022-10-24T03:41:01.221Z,1010.27
2022-10-24T03:42:02.028Z,1010.32
2022-10-24T03:43:02.334Z,1010.3
2022-10-24T03:44:01.045Z,1010.33
2022-10-24T03:45:04.470Z,1010.33
2022-10-24T03:46:02.272Z,1010.34
2022-10-24T03:47:01.033Z,1010.33
2022-10-24T03:48:01.055Z,1010.34
2022-10-24T03:50:01.859Z,1010.28
2022-10-24T03:51:01.281Z,1010.37
2022-10-24T03:52:01.283Z,1010.37
2022-10-24T03:53:01.065Z,1010.36
2022-10-24T03:54:04.055Z,1010.42
2022-10-24T03:55:01.139Z,1010.41
2022-10-24T03:56:00.800Z,1010.42
2022-10-24T03:57:00.509Z,1010.39
2022-10-24T03:58:00.131Z,1010.5
2022-10-24T03:59:04.036Z,1010.46
2022-10-24T04:00:01.712Z,1010.54
2022-10-24T04:01:01.182Z,1010.53
2022-10-24T04:02:01.087Z,1010.51
2022-10-24T04:03:01.238Z,1010.46
2022-10-24T04:04:06.766Z,1010.51
2022-10-24T04:05:00.830Z,1010.5
2022-10-24T04:06:00.486Z,1010.5
2022-10-24T04:07:00.048Z,1010.48
2022-10-24T04:07:59.606Z,1010.47
2022-10-24T04:09:09.745Z,1010.43
2022-10-24T04:10:02.311Z,1010.43
2022-10-24T04:11:04.352Z,1010.38
2022-10-24T04:12:01.318Z,1010.39
2022-10-24T04:13:02.027Z,1010.41
2022-10-24T04:14:11.741Z,1010.41
2022-10-24T04:15:04.117Z,1010.45
2022-10-24T04:16:02.255Z,1010.45
2022-10-24T04:17:01.867Z,1010.44
2022-10-24T04:18:01.067Z,1010.48
2022-10-24T04:19:14.473Z,1010.45
2022-10-24T04:20:01.148Z,1010.46
2022-10-24T04:21:05.125Z,1010.45
2022-10-24T04:22:01.058Z,1010.48
2022-10-24T04:23:03.715Z,1010.45
2022-10-24T04:24:01.728Z,1010.46
2022-10-24T04:25:01.243Z,1010.46
2022-10-24T04:26:02.617Z,1010.44
2022-10-24T04:27:02.316Z,1010.47
2022-10-24T04:28:01.746Z,1010.48
2022-10-24T04:29:01.328Z,1010.5
2022-10-24T04:30:01.963Z,1010.47
2022-10-24T04:31:01.162Z,1010.5
2022-10-24T04:32:01.048Z,1010.54
2022-10-24T04:33:01.202Z,1010.54
2022-10-24T04:34:01.043Z,1010.5
2022-10-24T04:35:01.148Z,1010.5
2022-10-24T04:36:01.053Z,1010.49
2022-10-24T04:37:01.048Z,1010.44
2022-10-24T04:38:01.228Z,1010.51
2022-10-24T04:40:03.945Z,1010.54
2022-10-24T04:41:06.254Z,1010.54
2022-10-24T04:42:01.113Z,1010.56
2022-10-24T04:43:00.722Z,1010.55
2022-10-24T04:44:00.358Z,1010.55
2022-10-24T04:45:00.105Z,1010.54
2022-10-24T04:45:59.949Z,1010.56
2022-10-24T04:46:59.571Z,1010.57
2022-10-24T04:48:01.699Z,1010.61
2022-10-24T04:49:01.139Z,1010.62
2022-10-24T04:50:01.049Z,1010.66
2022-10-24T04:51:01.052Z,1010.6
2022-10-24T04:52:01.083Z,1010.67
2022-10-24T04:53:01.360Z,1010.59
2022-10-24T04:54:01.953Z,1010.52
2022-10-24T04:55:04.370Z,1010.51
2022-10-24T04:56:01.180Z,1010.49
2022-10-24T04:57:02.441Z,1010.55
2022-10-24T04:58:01.046Z,1010.47
2022-10-24T04:59:01.054Z,1010.49
2022-10-24T05:00:01.068Z,1010.44
2022-10-24T05:01:01.586Z,1010.46
2022-10-24T05:02:01.282Z,1010.51
2022-10-24T05:03:01.866Z,1010.46
2022-10-24T05:05:02.122Z,1010.46
2022-10-24T05:06:01.529Z,1010.38
2022-10-24T05:07:02.097Z,1010.41
2022-10-24T05:08:01.701Z,1010.48
2022-10-24T05:09:01.045Z,1010.42
2022-10-24T05:10:01.083Z,1010.46
2022-10-24T05:11:00.710Z,1010.4
2022-10-24T05:12:00.265Z,1010.43
2022-10-24T05:12:59.927Z,1010.46
2022-10-24T05:13:59.487Z,1010.48
2022-10-24T05:15:01.056Z,1010.46
2022-10-24T05:16:01.048Z,1010.47
2022-10-24T05:17:01.046Z,1010.48
2022-10-24T05:18:01.058Z,1010.54
2022-10-24T05:19:01.119Z,1010.52
2022-10-24T05:20:01.505Z,1010.48
2022-10-24T05:21:03.871Z,1010.52
2022-10-24T05:22:01.082Z,1010.5
2022-10-24T05:23:01.075Z,1010.56
2022-10-24T05:24:01.041Z,1010.49
2022-10-24T05:25:01.213Z,1010.54
2022-10-24T05:26:01.859Z,1010.55
2022-10-24T05:27:01.055Z,1010.56
2022-10-24T05:28:01.198Z,1010.54
2022-10-24T05:29:01.100Z,1010.61
2022-10-24T05:30:01.373Z,1010.59
2022-10-24T05:31:00.907Z,1010.56
2022-10-24T05:32:01.426Z,1010.66
2022-10-24T05:33:02.072Z,1010.61
2022-10-24T05:34:01.776Z,1010.61
2022-10-24T05:35:01.055Z,1010.57
2022-10-24T05:36:01.735Z,1010.63
2022-10-24T05:37:02.489Z,1010.6
2022-10-24T05:38:02.817Z,1010.66
2022-10-24T05:39:04.518Z,1010.71
2022-10-24T05:40:02.001Z,1010.71
2022-10-24T05:41:02.267Z,1010.72
2022-10-24T05:42:01.067Z,1010.68
2022-10-24T05:43:01.070Z,1010.74
2022-10-24T05:44:01.057Z,1010.71
2022-10-24T05:45:03.857Z,1010.7
2022-10-24T05:46:02.357Z,1010.74
2022-10-24T05:47:01.056Z,1010.69
2022-10-24T05:48:01.048Z,1010.72
2022-10-24T05:49:01.053Z,1010.67
2022-10-24T05:50:06.868Z,1010.71
2022-10-24T05:51:00.727Z,1010.69
2022-10-24T05:52:00.393Z,1010.72
2022-10-24T05:52:59.977Z,1010.67
2022-10-24T05:53:59.672Z,1010.69
2022-10-24T05:55:08.728Z,1010.7
2022-10-24T05:56:01.326Z,1010.7
2022-10-24T05:57:00.718Z,1010.71
2022-10-24T05:58:00.322Z,1010.74
2022-10-24T05:58:59.906Z,1010.74
2022-10-24T06:00:09.724Z,1010.73
2022-10-24T06:01:01.651Z,1010.73
2022-10-24T06:02:01.386Z,1010.77
2022-10-24T06:03:02.027Z,1010.81
2022-10-24T06:04:02.015Z,1010.84
2022-10-24T06:05:12.192Z,1010.8
2022-10-24T06:06:01.310Z,1010.76
2022-10-24T06:07:01.324Z,1010.74
2022-10-24T06:08:02.579Z,1010.7
2022-10-24T06:09:02.173Z,1010.74
2022-10-24T06:10:14.808Z,1010.74
2022-10-24T06:11:00.832Z,1010.73
2022-10-24T06:12:00.395Z,1010.73
2022-10-24T06:12:59.971Z,1010.71
2022-10-24T06:13:59.539Z,1010.77
2022-10-24T06:15:01.126Z,1010.76
2022-10-24T06:16:01.713Z,1010.73
2022-10-24T06:17:02.034Z,1010.73
2022-10-24T06:18:02.037Z,1010.77
2022-10-24T06:19:01.217Z,1010.69
2022-10-24T06:20:01.237Z,1010.71
2022-10-24T06:21:01.880Z,1010.68
2022-10-24T06:22:04.124Z,1010.68
2022-10-24T06:23:01.050Z,1010.61
2022-10-24T06:24:01.045Z,1010.64
2022-10-24T06:25:01.055Z,1010.62
2022-10-24T06:26:01.037Z,1010.63
2022-10-24T06:27:01.069Z,1010.6
2022-10-24T06:28:01.133Z,1010.61
2022-10-24T06:29:01.045Z,1010.57
2022-10-24T06:30:01.066Z,1010.62
2022-10-24T06:31:01.104Z,1010.59
2022-10-24T06:32:01.906Z,1010.55
2022-10-24T06:33:01.181Z,1010.56
2022-10-24T06:34:01.058Z,1010.56
2022-10-24T06:35:01.091Z,1010.62
2022-10-24T06:36:01.058Z,1010.62
2022-10-24T06:37:01.046Z,1010.62
2022-10-24T06:38:01.048Z,1010.62
2022-10-24T06:39:01.382Z,1010.64
2022-10-24T06:40:01.456Z,1010.67
2022-10-24T06:41:02.042Z,1010.64
2022-10-24T06:42:02.318Z,1010.63
2022-10-24T06:43:01.068Z,1010.66
2022-10-24T06:44:01.052Z,1010.69
2022-10-24T06:45:01.126Z,1010.65
2022-10-24T06:46:01.044Z,1010.62
2022-10-24T06:47:01.044Z,1010.68
2022-10-24T06:48:01.445Z,1010.69
2022-10-24T06:49:02.138Z,1010.69
2022-10-24T06:50:02.152Z,1010.67
2022-10-24T06:51:01.885Z,1010.65
2022-10-24T06:52:00.863Z,1010.66
2022-10-24T06:53:01.070Z,1010.65
2022-10-24T06:54:01.077Z,1010.64
2022-10-24T06:55:01.063Z,1010.66
2022-10-24T06:56:01.083Z,1010.63
2022-10-24T06:57:01.326Z,1010.64
2022-10-24T06:58:01.348Z,1010.61
2022-10-24T06:59:01.954Z,1010.59
2022-10-24T07:00:02.082Z,1010.6
2022-10-24T07:01:01.239Z,1010.58
2022-10-24T07:02:05.052Z,1010.61
2022-10-24T07:03:01.823Z,1010.59
2022-10-24T07:04:01.064Z,1010.58
2022-10-24T07:05:01.080Z,1010.56
2022-10-24T07:06:01.142Z,1010.59
2022-10-24T07:07:01.477Z,1010.57
2022-10-24T07:08:01.218Z,1010.56
2022-10-24T07:09:04.391Z,1010.53
2022-10-24T07:10:05.845Z,1010.57
2022-10-24T07:11:02.065Z,1010.55
2022-10-24T07:12:01.621Z,1010.6
2022-10-24T07:13:01.070Z,1010.52
2022-10-24T07:14:03.444Z,1010.57
2022-10-24T07:15:01.657Z,1010.57
2022-10-24T07:16:01.761Z,1010.58
2022-10-24T07:17:04.139Z,1010.55
2022-10-24T07:18:01.049Z,1010.55
2022-10-24T07:19:01.075Z,1010.6
2022-10-24T07:20:01.075Z,1010.61
2022-10-24T07:21:01.216Z,1010.59
2022-10-24T07:22:01.691Z,1010.61
2022-10-24T07:23:01.899Z,1010.57
2022-10-24T07:24:01.709Z,1010.59
2022-10-24T07:25:01.063Z,1010.59
2022-10-24T07:26:01.730Z,1010.61
2022-10-24T07:27:02.461Z,1010.62
2022-10-24T07:28:01.423Z,1010.64
2022-10-24T07:30:05.484Z,1010.74
2022-10-24T07:31:03.843Z,1010.66
2022-10-24T07:32:00.745Z,1010.77
2022-10-24T07:33:00.370Z,1010.76
2022-10-24T07:33:59.923Z,1010.8
2022-10-24T07:34:59.489Z,1010.8
2022-10-24T07:36:05.599Z,1010.89
2022-10-24T07:37:01.224Z,1010.86
2022-10-24T07:38:01.407Z,1010.86
2022-10-24T07:39:01.416Z,1010.9
2022-10-24T07:40:02.751Z,1010.91
2022-10-24T07:41:07.600Z,1010.89
2022-10-24T07:42:01.217Z,1010.91
2022-10-24T07:43:00.960Z,1010.95
2022-10-24T07:44:01.062Z,1010.97
2022-10-24T07:45:01.071Z,1010.99
2022-10-24T07:46:11.227Z,1011.02
2022-10-24T07:47:03.966Z,1011.05
2022-10-24T07:48:02.973Z,1011.06
2022-10-24T07:49:01.045Z,1011.06
2022-10-24T07:50:01.041Z,1011.08
2022-10-24T07:51:13.654Z,1011.12
2022-10-24T07:52:01.318Z,1011.1
2022-10-24T07:53:01.945Z,1011.1
2022-10-24T07:54:01.055Z,1011.11
2022-10-24T07:55:01.358Z,1011.06
2022-10-24T07:56:16.023Z,1011.08
2022-10-24T07:57:02.703Z,1011.14
2022-10-24T07:58:02.096Z,1011.15
2022-10-24T07:59:09.287Z,1011.14
2022-10-24T08:00:01.812Z,1011.11
2022-10-24T08:01:01.490Z,1011.12
2022-10-24T08:02:01.150Z,1011.11
2022-10-24T08:03:01.048Z,1011.09
2022-10-24T08:04:01.045Z,1011.05
2022-10-24T08:05:01.044Z,1011.07
2022-10-24T08:06:01.061Z,1011.08
2022-10-24T08:07:01.178Z,1011.07
2022-10-24T08:08:24.704Z,1011.04
2022-10-24T08:09:02.317Z,1011.04
2022-10-24T08:10:01.054Z,1010.98
2022-10-24T08:12:02.110Z,1010.96
2022-10-24T08:13:01.700Z,1010.95
2022-10-24T08:14:01.697Z,1010.88
2022-10-24T08:15:01.739Z,1010.85
2022-10-24T08:16:01.693Z,1010.85
2022-10-24T08:17:01.175Z,1010.85
2022-10-24T08:18:01.794Z,1010.86
2022-10-24T08:19:02.104Z,1010.83
2022-10-24T08:20:01.456Z,1010.79
2022-10-24T08:21:00.735Z,1010.81
2022-10-24T08:22:00.362Z,1010.78
2022-10-24T08:22:59.976Z,1010.79
2022-10-24T08:23:59.596Z,1010.76
2022-10-24T08:25:01.688Z,1010.74
2022-10-24T08:26:01.780Z,1010.69
2022-10-24T08:27:01.086Z,1010.7
2022-10-24T08:28:03.908Z,1010.67
2022-10-24T08:29:01.474Z,1010.71
2022-10-24T08:30:01.347Z,1010.75
2022-10-24T08:31:01.328Z,1010.75
2022-10-24T08:32:01.074Z,1010.79
2022-10-24T08:33:01.047Z,1010.82
2022-10-24T08:34:04.287Z,1010.8
2022-10-24T08:35:01.812Z,1010.8
2022-10-24T08:36:04.027Z,1010.82
2022-10-24T08:37:01.654Z,1010.87
2022-10-24T08:38:02.209Z,1010.88
2022-10-24T08:39:01.836Z,1010.94
2022-10-24T08:40:01.063Z,1010.91
2022-10-24T08:41:01.108Z,1010.94
2022-10-24T08:42:01.313Z,1010.91
2022-10-24T08:43:01.722Z,1010.92
2022-10-24T08:44:02.315Z,1010.9
2022-10-24T08:45:01.692Z,1010.84
2022-10-24T08:46:04.036Z,1010.83
2022-10-24T08:47:03.949Z,1010.84
2022-10-24T08:48:03.774Z,1010.86
2022-10-24T08:49:01.057Z,1010.87
2022-10-24T08:50:01.715Z,1010.91
2022-10-24T08:51:01.268Z,1010.83
2022-10-24T08:52:00.608Z,1010.88
2022-10-24T08:53:00.190Z,1010.9
2022-10-24T08:53:59.849Z,1010.88
2022-10-24T08:55:04.803Z,1010.88
2022-10-24T08:56:01.465Z,1010.92
2022-10-24T08:57:04.381Z,1010.94
2022-10-24T08:58:01.555Z,1010.9
2022-10-24T08:59:02.015Z,1011
2022-10-24T09:00:01.752Z,1010.93
2022-10-24T09:01:01.183Z,1010.95
2022-10-24T09:02:04.235Z,1010.97
2022-10-24T09:03:01.573Z,1010.94
2022-10-24T09:04:01.263Z,1010.92
2022-10-24T09:05:03.957Z,1010.89
2022-10-24T09:06:01.047Z,1010.9
2022-10-24T09:07:01.049Z,1010.87
2022-10-24T09:08:01.064Z,1010.93
2022-10-24T09:09:01.063Z,1010.92
2022-10-24T09:10:01.310Z,1010.98
2022-10-24T09:11:01.603Z,1010.93
2022-10-24T09:12:02.728Z,1010.95
2022-10-24T09:13:01.828Z,1010.96
2022-10-24T09:14:02.032Z,1010.91
2022-10-24T09:15:02.817Z,1010.88
2022-10-24T09:16:01.341Z,1010.99
2022-10-24T09:17:06.284Z,1010.92
2022-10-24T09:18:02.243Z,1010.92
2022-10-24T09:19:01.787Z,1010.98
2022-10-24T09:20:03.968Z,1010.98
2022-10-24T09:21:01.359Z,1010.98
2022-10-24T09:22:08.704Z,1011.02
2022-10-24T09:23:02.429Z,1010.97
2022-10-24T09:24:01.413Z,1010.99
2022-10-24T09:25:02.325Z,1010.94
2022-10-24T09:26:01.806Z,1010.92
2022-10-24T09:27:11.305Z,1010.96
2022-10-24T09:28:02.288Z,1010.88
2022-10-24T09:29:04.027Z,1010.95
2022-10-24T09:30:01.702Z,1010.94
2022-10-24T09:31:01.087Z,1010.95
2022-10-24T09:32:14.081Z,1010.96
2022-10-24T09:33:01.950Z,1010.97
2022-10-24T09:34:01.864Z,1010.97
2022-10-24T09:35:01.057Z,1010.97
2022-10-24T09:36:01.419Z,1010.99
2022-10-24T09:37:16.716Z,1010.96
2022-10-24T09:38:03.009Z,1010.97
2022-10-24T09:39:01.778Z,1011.01
2022-10-24T09:40:01.078Z,1010.99
2022-10-24T09:41:01.466Z,1010.94
2022-10-24T09:42:01.060Z,1010.97
2022-10-24T09:43:01.175Z,1010.91
2022-10-24T09:44:01.053Z,1010.9
2022-10-24T09:45:01.136Z,1010.91
2022-10-24T09:46:00.545Z,1010.93
2022-10-24T09:47:00.148Z,1010.94
2022-10-24T09:47:59.729Z,1010.87
2022-10-24T09:49:01.445Z,1010.9
2022-10-24T09:50:01.819Z,1010.9
2022-10-24T09:51:01.108Z,1010.85
2022-10-24T09:52:01.784Z,1010.87
2022-10-24T09:53:01.051Z,1010.89
2022-10-24T09:54:01.101Z,1010.84
2022-10-24T09:55:01.124Z,1010.89
2022-10-24T09:56:02.121Z,1010.86
2022-10-24T09:57:01.486Z,1010.87
2022-10-24T09:58:01.097Z,1010.89
2022-10-24T09:59:01.293Z,1010.85
2022-10-24T10:00:01.071Z,1010.92
2022-10-24T10:01:01.479Z,1010.9
2022-10-24T10:02:01.785Z,1010.94
2022-10-24T10:03:02.539Z,1010.92
2022-10-24T10:04:06.074Z,1010.85
2022-10-24T10:05:01.763Z,1010.86
2022-10-24T10:06:01.057Z,1010.8
2022-10-24T10:07:01.074Z,1010.82
2022-10-24T10:08:03.697Z,1010.79
2022-10-24T10:09:01.434Z,1010.81
2022-10-24T10:10:01.163Z,1010.83
2022-10-24T10:11:02.146Z,1010.8
2022-10-24T10:12:02.999Z,1010.76
2022-10-24T10:13:01.869Z,1010.76
2022-10-24T10:14:02.509Z,1010.67
2022-10-24T10:15:02.548Z,1010.7
2022-10-24T10:16:02.482Z,1010.74
2022-10-24T10:17:00.749Z,1010.72
2022-10-24T10:18:00.408Z,1010.73
2022-10-24T10:19:00.179Z,1010.75
2022-10-24T10:19:59.901Z,1010.74
2022-10-24T10:20:59.553Z,1010.81
2022-10-24T10:22:01.243Z,1010.84
2022-10-24T10:23:02.460Z,1010.84
2022-10-24T10:24:02.330Z,1010.86
2022-10-24T10:25:02.146Z,1010.8
2022-10-24T10:26:01.952Z,1010.76
2022-10-24T10:27:01.351Z,1010.79
2022-10-24T10:28:03.076Z,1010.76
2022-10-24T10:29:02.080Z,1010.75
2022-10-24T10:30:01.745Z,1010.71
2022-10-24T10:31:01.888Z,1010.74
2022-10-24T10:32:01.566Z,1010.74
2022-10-24T10:33:00.745Z,1010.73
2022-10-24T10:34:00.651Z,1010.81
2022-10-24T10:35:00.657Z,1010.8
2022-10-24T10:36:00.267Z,1010.77
2022-10-24T10:36:59.865Z,1010.8
2022-10-24T10:38:02.497Z,1010.77
2022-10-24T10:39:02.504Z,1010.74
2022-10-24T10:40:01.180Z,1010.72
2022-10-24T10:41:01.790Z,1010.67
2022-10-24T10:42:01.075Z,1010.68
2022-10-24T10:43:01.434Z,1010.7
2022-10-24T10:44:01.453Z,1010.75
2022-10-24T10:45:01.446Z,1010.78
2022-10-24T10:46:02.270Z,1010.74
2022-10-24T10:47:02.078Z,1010.74
2022-10-24T10:48:02.324Z,1010.74
2022-10-24T10:49:01.738Z,1010.76
2022-10-24T10:50:01.075Z,1010.74
2022-10-24T10:51:03.284Z,1010.78
2022-10-24T10:52:01.383Z,1010.73
2022-10-24T10:53:03.621Z,1010.7
2022-10-24T10:54:02.246Z,1010.75
2022-10-24T10:55:02.072Z,1010.8
2022-10-24T10:56:02.295Z,1010.79
2022-10-24T10:57:01.054Z,1010.75
2022-10-24T10:58:04.295Z,1010.76
2022-10-24T10:59:01.064Z,1010.75
2022-10-24T11:00:01.059Z,1010.83
2022-10-24T11:01:01.916Z,1010.77
2022-10-24T11:02:01.538Z,1010.81
2022-10-24T11:03:06.031Z,1010.8
2022-10-24T11:04:01.443Z,1010.85
2022-10-24T11:05:01.038Z,1010.78
2022-10-24T11:06:01.062Z,1010.84
2022-10-24T11:08:09.015Z,1010.81
2022-10-24T11:09:01.058Z,1010.83
2022-10-24T11:10:01.061Z,1010.78
2022-10-24T11:11:01.051Z,1010.84
2022-10-24T11:12:00.664Z,1010.82
2022-10-24T11:13:10.330Z,1010.88
2022-10-24T11:14:01.457Z,1010.85
2022-10-24T11:15:02.725Z,1010.88
2022-10-24T11:16:02.878Z,1010.83
2022-10-24T11:17:01.046Z,1010.82
2022-10-24T11:18:14.556Z,1010.73
2022-10-24T11:19:01.721Z,1010.68
2022-10-24T11:20:01.974Z,1010.68
2022-10-24T11:21:01.299Z,1010.6
2022-10-24T11:22:01.947Z,1010.64
2022-10-24T11:23:16.670Z,1010.62
2022-10-24T11:24:01.058Z,1010.63
2022-10-24T11:25:01.065Z,1010.64
2022-10-24T11:26:01.052Z,1010.65
2022-10-24T11:27:01.054Z,1010.67
2022-10-24T11:28:01.070Z,1010.61
2022-10-24T11:29:01.052Z,1010.61
2022-10-24T11:30:01.056Z,1010.59
2022-10-24T11:31:01.108Z,1010.63
2022-10-24T11:32:00.821Z,1010.67
2022-10-24T11:33:01.097Z,1010.71
2022-10-24T11:34:00.578Z,1010.66
2022-10-24T11:35:00.130Z,1010.72
2022-10-24T11:35:59.675Z,1010.67
2022-10-24T11:37:01.708Z,1010.64
2022-10-24T11:38:01.056Z,1010.57
2022-10-24T11:39:01.079Z,1010.58
2022-10-24T11:40:01.427Z,1010.66
2022-10-24T11:41:01.154Z,1010.67
2022-10-24T11:42:01.043Z,1010.67
2022-10-24T11:43:01.044Z,1010.65
2022-10-24T11:44:01.055Z,1010.65
2022-10-24T11:45:01.059Z,1010.62
2022-10-24T11:46:01.150Z,1010.57
2022-10-24T11:47:05.601Z,1010.65
2022-10-24T11:48:01.202Z,1010.61
2022-10-24T11:49:01.175Z,1010.67
2022-10-24T11:50:01.265Z,1010.67
2022-10-24T11:51:01.047Z,1010.73
2022-10-24T11:52:00.664Z,1010.72
2022-10-24T11:53:00.330Z,1010.68
2022-10-24T11:53:59.883Z,1010.72
2022-10-24T11:54:59.448Z,1010.77
2022-10-24T11:56:01.049Z,1010.74
2022-10-24T11:57:01.076Z,1010.73
2022-10-24T11:58:01.042Z,1010.71
2022-10-24T11:59:01.393Z,1010.68
2022-10-24T12:00:01.382Z,1010.73
2022-10-24T12:01:02.571Z,1010.68
2022-10-24T12:01:59.903Z,1010.71
2022-10-24T12:02:59.524Z,1010.68
2022-10-24T12:04:01.701Z,1010.7
2022-10-24T12:05:01.683Z,1010.67
2022-10-24T12:05:59.502Z,1010.67
2022-10-24T12:07:01.684Z,1010.68
2022-10-24T12:08:02.482Z,1010.7
2022-10-24T12:09:01.385Z,1010.67
2022-10-24T12:10:02.406Z,1010.68
2022-10-24T12:11:01.117Z,1010.66
2022-10-24T12:12:00.735Z,1010.67
2022-10-24T12:13:00.338Z,1010.67
2022-10-24T12:13:59.954Z,1010.64
2022-10-24T12:14:59.971Z,1010.63